sensor_id;sensor_type;location;lat;lon;timestamp;temperature;humidity
59301;DHT22;45073;52.740;6.784;2022-11-14T00:02:26;8.20;99.90
59301;DHT22;45073;52.740;6.784;2022-11-14T00:04:52;8.20;99.90
59301;DHT22;45073;52.740;6.784;2022-11-14T00:07:17;8.20;99.90
59301;DHT22;45073;52.740;6.784;2022-11-14T00:09:43;8.20;99.90
59301;DHT22;45073;52.740;6.784;2022-11-14T00:12:09;8.20;99.90
59301;DHT22;45073;52.740;6.784;2022-11-14T00:14:35;8.20;99.90
59301;DHT22;45073;52.740;6.784;2022-11-14T00:17:02;8.20;99.90
59301;DHT22;45073;52.740;6.784;2022-11-14T00:19:28;8.20;99.90
59301;DHT22;45073;52.740;6.784;2022-11-14T00:21:53;8.20;99.90
59301;DHT22;45073;52.740;6.784;2022-11-14T00:24:19;8.30;99.90
59301;DHT22;45073;52.740;6.784;2022-11-14T00:26:45;8.30;99.90
59301;DHT22;45073;52.740;6.784;2022-11-14T00:29:12;8.30;99.90
59301;DHT22;45073;52.740;6.784;2022-11-14T00:31:38;8.30;99.90
59301;DHT22;45073;52.740;6.784;2022-11-14T00:34:04;8.30;99.90
59301;DHT22;45073;52.740;6.784;2022-11-14T00:36:30;8.30;99.90
59301;DHT22;45073;52.740;6.784;2022-11-14T00:38:55;8.30;99.90
59301;DHT22;45073;52.740;6.784;2022-11-14T00:41:21;8.30;99.90
59301;DHT22;45073;52.740;6.784;2022-11-14T00:43:47;8.30;99.90
59301;DHT22;45073;52.740;6.784;2022-11-14T00:46:12;8.30;99.90
59301;DHT22;45073;52.740;6.784;2022-11-14T00:48:38;8.30;99.90
59301;DHT22;45073;52.740;6.784;2022-11-14T00:51:03;8.30;99.90
59301;DHT22;45073;52.740;6.784;2022-11-14T00:53:29;8.30;99.90
59301;DHT22;45073;52.740;6.784;2022-11-14T00:55:55;8.30;99.90
59301;DHT22;45073;52.740;6.784;2022-11-14T00:58:20;8.20;99.90
59301;DHT22;45073;52.740;6.784;2022-11-14T01:00:46;8.30;99.90
59301;DHT22;45073;52.740;6.784;2022-11-14T01:03:12;8.30;99.90
59301;DHT22;45073;52.740;6.784;2022-11-14T01:05:46;8.20;99.90
59301;DHT22;45073;52.740;6.784;2022-11-14T01:08:13;8.20;99.90
59301;DHT22;45073;52.740;6.784;2022-11-14T01:10:44;8.20;99.90
59301;DHT22;45073;52.740;6.784;2022-11-14T01:13:10;8.20;99.90
59301;DHT22;45073;52.740;6.784;2022-11-14T01:15:40;8.20;99.90
59301;DHT22;45073;52.740;6.784;2022-11-14T01:18:06;8.20;99.90
59301;DHT22;45073;52.740;6.784;2022-11-14T01:20:32;8.10;99.90
59301;DHT22;45073;52.740;6.784;2022-11-14T01:22:58;8.10;99.90
59301;DHT22;45073;52.740;6.784;2022-11-14T01:25:23;8.10;99.90
59301;DHT22;45073;52.740;6.784;2022-11-14T01:27:49;8.00;99.90
59301;DHT22;45073;52.740;6.784;2022-11-14T01:30:15;8.00;99.90
59301;DHT22;45073;52.740;6.784;2022-11-14T01:32:41;8.00;99.90
59301;DHT22;45073;52.740;6.784;2022-11-14T01:35:06;7.90;99.90
59301;DHT22;45073;52.740;6.784;2022-11-14T01:37:32;8.00;99.90
59301;DHT22;45073;52.740;6.784;2022-11-14T01:39:58;8.00;99.90
59301;DHT22;45073;52.740;6.784;2022-11-14T01:42:23;7.90;99.90
59301;DHT22;45073;52.740;6.784;2022-11-14T01:44:50;7.90;99.90
59301;DHT22;45073;52.740;6.784;2022-11-14T01:47:23;7.90;99.90
59301;DHT22;45073;52.740;6.784;2022-11-14T01:49:53;7.90;99.90
59301;DHT22;45073;52.740;6.784;2022-11-14T01:52:32;7.90;99.90
59301;DHT22;45073;52.740;6.784;2022-11-14T01:55:00;7.90;99.90
59301;DHT22;45073;52.740;6.784;2022-11-14T01:57:32;7.90;99.90
59301;DHT22;45073;52.740;6.784;2022-11-14T02:00:03;7.90;99.90
59301;DHT22;45073;52.740;6.784;2022-11-14T02:02:30;7.80;99.90
59301;DHT22;45073;52.740;6.784;2022-11-14T02:05:00;7.80;99.90
59301;DHT22;45073;52.740;6.784;2022-11-14T02:07:28;7.80;99.90
59301;DHT22;45073;52.740;6.784;2022-11-14T02:10:00;7.80;99.90
59301;DHT22;45073;52.740;6.784;2022-11-14T02:12:26;7.80;99.90
59301;DHT22;45073;52.740;6.784;2022-11-14T02:14:55;7.80;99.90
59301;DHT22;45073;52.740;6.784;2022-11-14T02:17:22;7.80;99.90
59301;DHT22;45073;52.740;6.784;2022-11-14T02:22:27;7.80;99.90
59301;DHT22;45073;52.740;6.784;2022-11-14T02:24:53;7.80;99.90
59301;DHT22;45073;52.740;6.784;2022-11-14T02:27:19;7.80;99.90
59301;DHT22;45073;52.740;6.784;2022-11-14T02:29:45;7.80;99.90
59301;DHT22;45073;52.740;6.784;2022-11-14T02:32:10;7.80;99.90
59301;DHT22;45073;52.740;6.784;2022-11-14T02:34:36;7.80;99.90
59301;DHT22;45073;52.740;6.784;2022-11-14T02:37:01;7.80;99.90
59301;DHT22;45073;52.740;6.784;2022-11-14T02:39:27;7.80;99.90
59301;DHT22;45073;52.740;6.784;2022-11-14T02:41:53;7.80;99.90
59301;DHT22;45073;52.740;6.784;2022-11-14T02:44:18;7.80;99.90
59301;DHT22;45073;52.740;6.784;2022-11-14T02:46:44;7.80;99.90
59301;DHT22;45073;52.740;6.784;2022-11-14T02:49:09;7.80;99.90
59301;DHT22;45073;52.740;6.784;2022-11-14T02:51:35;7.80;99.90
59301;DHT22;45073;52.740;6.784;2022-11-14T02:54:00;7.80;99.90
59301;DHT22;45073;52.740;6.784;2022-11-14T02:56:26;7.70;99.90
59301;DHT22;45073;52.740;6.784;2022-11-14T02:58:52;7.80;99.90
59301;DHT22;45073;52.740;6.784;2022-11-14T03:01:17;7.70;99.90
59301;DHT22;45073;52.740;6.784;2022-11-14T03:03:43;7.80;99.90
59301;DHT22;45073;52.740;6.784;2022-11-14T03:06:09;7.80;99.90
59301;DHT22;45073;52.740;6.784;2022-11-14T03:08:34;7.80;99.90
59301;DHT22;45073;52.740;6.784;2022-11-14T03:11:07;7.70;99.90
59301;DHT22;45073;52.740;6.784;2022-11-14T03:13:33;7.80;99.90
59301;DHT22;45073;52.740;6.784;2022-11-14T03:16:10;7.70;99.90
59301;DHT22;45073;52.740;6.784;2022-11-14T03:18:36;7.70;99.90
59301;DHT22;45073;52.740;6.784;2022-11-14T03:21:10;7.70;99.90
59301;DHT22;45073;52.740;6.784;2022-11-14T03:23:36;7.70;99.90
59301;DHT22;45073;52.740;6.784;2022-11-14T03:26:03;7.70;99.90
59301;DHT22;45073;52.740;6.784;2022-11-14T03:28:30;7.70;99.90
59301;DHT22;45073;52.740;6.784;2022-11-14T03:30:55;7.70;99.90
59301;DHT22;45073;52.740;6.784;2022-11-14T03:33:22;7.70;99.90
59301;DHT22;45073;52.740;6.784;2022-11-14T03:35:51;7.70;99.90
59301;DHT22;45073;52.740;6.784;2022-11-14T03:38:18;7.70;99.90
59301;DHT22;45073;52.740;6.784;2022-11-14T03:40:43;7.70;99.90
59301;DHT22;45073;52.740;6.784;2022-11-14T03:43:09;7.70;99.90
59301;DHT22;45073;52.740;6.784;2022-11-14T03:45:36;7.70;99.90
59301;DHT22;45073;52.740;6.784;2022-11-14T03:48:02;7.70;99.90
59301;DHT22;45073;52.740;6.784;2022-11-14T03:50:28;7.70;99.90
59301;DHT22;45073;52.740;6.784;2022-11-14T03:52:53;7.70;99.90
59301;DHT22;45073;52.740;6.784;2022-11-14T03:55:19;7.70;99.90
59301;DHT22;45073;52.740;6.784;2022-11-14T03:57:45;7.70;99.90
59301;DHT22;45073;52.740;6.784;2022-11-14T04:00:10;7.70;99.90
59301;DHT22;45073;52.740;6.784;2022-11-14T04:02:36;7.70;99.90
59301;DHT22;45073;52.740;6.784;2022-11-14T04:05:02;7.70;99.90
59301;DHT22;45073;52.740;6.784;2022-11-14T04:07:27;7.70;99.90
59301;DHT22;45073;52.740;6.784;2022-11-14T04:09:53;7.70;99.90
59301;DHT22;45073;52.740;6.784;2022-11-14T04:12:18;7.70;99.90
59301;DHT22;45073;52.740;6.784;2022-11-14T04:14:44;7.70;99.90
59301;DHT22;45073;52.740;6.784;2022-11-14T04:17:09;7.70;99.90
59301;DHT22;45073;52.740;6.784;2022-11-14T04:19:35;7.70;99.90
59301;DHT22;45073;52.740;6.784;2022-11-14T04:22:01;7.70;99.90
59301;DHT22;45073;52.740;6.784;2022-11-14T04:24:27;7.70;99.90
59301;DHT22;45073;52.740;6.784;2022-11-14T04:26:52;7.70;99.90
59301;DHT22;45073;52.740;6.784;2022-11-14T04:29:18;7.70;99.90
59301;DHT22;45073;52.740;6.784;2022-11-14T04:31:44;7.70;99.90
59301;DHT22;45073;52.740;6.784;2022-11-14T04:34:09;7.70;99.90
59301;DHT22;45073;52.740;6.784;2022-11-14T04:36:35;7.70;99.90
59301;DHT22;45073;52.740;6.784;2022-11-14T04:39:00;7.70;99.90
59301;DHT22;45073;52.740;6.784;2022-11-14T04:41:26;7.70;99.90
59301;DHT22;45073;52.740;6.784;2022-11-14T04:43:51;7.70;99.90
59301;DHT22;45073;52.740;6.784;2022-11-14T04:46:17;7.70;99.90
59301;DHT22;45073;52.740;6.784;2022-11-14T04:48:43;7.70;99.90
59301;DHT22;45073;52.740;6.784;2022-11-14T04:51:08;7.70;99.90
59301;DHT22;45073;52.740;6.784;2022-11-14T04:53:34;7.70;99.90
59301;DHT22;45073;52.740;6.784;2022-11-14T04:55:59;7.70;99.90
59301;DHT22;45073;52.740;6.784;2022-11-14T04:58:25;7.70;99.90
59301;DHT22;45073;52.740;6.784;2022-11-14T05:00:50;7.70;99.90
59301;DHT22;45073;52.740;6.784;2022-11-14T05:03:16;7.60;99.90
59301;DHT22;45073;52.740;6.784;2022-11-14T05:05:41;7.60;99.90
59301;DHT22;45073;52.740;6.784;2022-11-14T05:08:07;7.60;99.90
59301;DHT22;45073;52.740;6.784;2022-11-14T05:10:32;7.60;99.90
59301;DHT22;45073;52.740;6.784;2022-11-14T05:12:58;7.60;99.90
59301;DHT22;45073;52.740;6.784;2022-11-14T05:15:23;7.60;99.90
59301;DHT22;45073;52.740;6.784;2022-11-14T05:17:49;7.60;99.90
59301;DHT22;45073;52.740;6.784;2022-11-14T05:20:15;7.60;99.90
59301;DHT22;45073;52.740;6.784;2022-11-14T05:22:41;7.60;99.90
59301;DHT22;45073;52.740;6.784;2022-11-14T05:25:06;7.60;99.90
59301;DHT22;45073;52.740;6.784;2022-11-14T05:27:32;7.60;99.90
59301;DHT22;45073;52.740;6.784;2022-11-14T05:29:58;7.60;99.90
59301;DHT22;45073;52.740;6.784;2022-11-14T05:32:23;7.60;99.90
59301;DHT22;45073;52.740;6.784;2022-11-14T05:34:49;7.50;99.90
59301;DHT22;45073;52.740;6.784;2022-11-14T05:37:14;7.60;99.90
59301;DHT22;45073;52.740;6.784;2022-11-14T05:39:40;7.50;99.90
59301;DHT22;45073;52.740;6.784;2022-11-14T05:42:06;7.50;99.90
59301;DHT22;45073;52.740;6.784;2022-11-14T05:44:31;7.50;99.90
59301;DHT22;45073;52.740;6.784;2022-11-14T05:46:57;7.60;99.90
59301;DHT22;45073;52.740;6.784;2022-11-14T05:49:23;7.50;99.90
59301;DHT22;45073;52.740;6.784;2022-11-14T05:51:48;7.50;99.90
59301;DHT22;45073;52.740;6.784;2022-11-14T05:54:14;7.50;99.90
59301;DHT22;45073;52.740;6.784;2022-11-14T05:56:39;7.50;99.90
59301;DHT22;45073;52.740;6.784;2022-11-14T05:59:05;7.50;99.90
59301;DHT22;45073;52.740;6.784;2022-11-14T06:01:30;7.50;99.90
59301;DHT22;45073;52.740;6.784;2022-11-14T06:03:56;7.50;99.90
59301;DHT22;45073;52.740;6.784;2022-11-14T06:06:22;7.50;99.90
59301;DHT22;45073;52.740;6.784;2022-11-14T06:08:48;7.50;99.90
59301;DHT22;45073;52.740;6.784;2022-11-14T06:11:18;7.40;99.90
59301;DHT22;45073;52.740;6.784;2022-11-14T06:13:45;7.40;99.90
59301;DHT22;45073;52.740;6.784;2022-11-14T06:16:16;7.40;99.90
59301;DHT22;45073;52.740;6.784;2022-11-14T06:18:42;7.40;99.90
59301;DHT22;45073;52.740;6.784;2022-11-14T06:21:16;7.40;99.90
59301;DHT22;45073;52.740;6.784;2022-11-14T06:23:42;7.40;99.90
59301;DHT22;45073;52.740;6.784;2022-11-14T06:26:23;7.40;99.90
59301;DHT22;45073;52.740;6.784;2022-11-14T06:28:50;7.30;99.90
59301;DHT22;45073;52.740;6.784;2022-11-14T06:31:17;7.30;99.90
59301;DHT22;45073;52.740;6.784;2022-11-14T06:33:43;7.30;99.90
59301;DHT22;45073;52.740;6.784;2022-11-14T06:36:10;7.30;99.90
59301;DHT22;45073;52.740;6.784;2022-11-14T06:38:37;7.30;99.90
59301;DHT22;45073;52.740;6.784;2022-11-14T06:41:14;7.30;99.90
59301;DHT22;45073;52.740;6.784;2022-11-14T06:43:43;7.30;99.90
59301;DHT22;45073;52.740;6.784;2022-11-14T06:46:10;7.30;99.90
59301;DHT22;45073;52.740;6.784;2022-11-14T06:48:36;7.20;99.90
59301;DHT22;45073;52.740;6.784;2022-11-14T06:51:03;7.20;99.90
59301;DHT22;45073;52.740;6.784;2022-11-14T06:53:31;7.20;99.90
59301;DHT22;45073;52.740;6.784;2022-11-14T06:58:36;7.20;99.90
59301;DHT22;45073;52.740;6.784;2022-11-14T07:01:10;7.10;99.90
59301;DHT22;45073;52.740;6.784;2022-11-14T07:03:36;7.10;99.90
59301;DHT22;45073;52.740;6.784;2022-11-14T07:06:03;7.10;99.90
59301;DHT22;45073;52.740;6.784;2022-11-14T07:08:29;7.10;99.90
59301;DHT22;45073;52.740;6.784;2022-11-14T07:11:03;7.00;99.90
59301;DHT22;45073;52.740;6.784;2022-11-14T07:13:30;7.00;99.90
59301;DHT22;45073;52.740;6.784;2022-11-14T07:15:56;7.00;99.90
59301;DHT22;45073;52.740;6.784;2022-11-14T07:18:21;7.00;99.90
59301;DHT22;45073;52.740;6.784;2022-11-14T07:20:47;6.90;99.90
59301;DHT22;45073;52.740;6.784;2022-11-14T07:23:14;6.90;99.90
59301;DHT22;45073;52.740;6.784;2022-11-14T07:25:40;6.90;99.90
59301;DHT22;45073;52.740;6.784;2022-11-14T07:28:06;6.90;99.90
59301;DHT22;45073;52.740;6.784;2022-11-14T07:30:33;6.90;99.90
59301;DHT22;45073;52.740;6.784;2022-11-14T07:32:59;6.80;99.90
59301;DHT22;45073;52.740;6.784;2022-11-14T07:35:25;6.80;99.90
59301;DHT22;45073;52.740;6.784;2022-11-14T07:37:50;6.80;99.90
59301;DHT22;45073;52.740;6.784;2022-11-14T07:40:17;6.80;99.90
59301;DHT22;45073;52.740;6.784;2022-11-14T07:42:43;6.80;99.90
59301;DHT22;45073;52.740;6.784;2022-11-14T07:45:09;6.80;99.90
59301;DHT22;45073;52.740;6.784;2022-11-14T07:47:35;6.80;99.90
59301;DHT22;45073;52.740;6.784;2022-11-14T07:50:00;6.90;99.90
59301;DHT22;45073;52.740;6.784;2022-11-14T07:52:26;6.90;99.90
59301;DHT22;45073;52.740;6.784;2022-11-14T07:54:52;6.90;99.90
59301;DHT22;45073;52.740;6.784;2022-11-14T07:57:17;6.90;99.90
59301;DHT22;45073;52.740;6.784;2022-11-14T07:59:43;6.90;99.90
59301;DHT22;45073;52.740;6.784;2022-11-14T08:02:11;6.90;99.90
59301;DHT22;45073;52.740;6.784;2022-11-14T08:04:38;7.00;99.90
59301;DHT22;45073;52.740;6.784;2022-11-14T08:07:04;7.00;99.90
59301;DHT22;45073;52.740;6.784;2022-11-14T08:09:29;7.00;99.90
59301;DHT22;45073;52.740;6.784;2022-11-14T08:11:55;7.00;99.90
59301;DHT22;45073;52.740;6.784;2022-11-14T08:14:21;7.10;99.90
59301;DHT22;45073;52.740;6.784;2022-11-14T08:16:46;7.10;99.90
59301;DHT22;45073;52.740;6.784;2022-11-14T08:19:12;7.10;99.90
59301;DHT22;45073;52.740;6.784;2022-11-14T08:21:37;7.10;99.90
59301;DHT22;45073;52.740;6.784;2022-11-14T08:24:03;7.20;99.90
59301;DHT22;45073;52.740;6.784;2022-11-14T08:26:29;7.10;99.90
59301;DHT22;45073;52.740;6.784;2022-11-14T08:28:54;7.20;99.90
59301;DHT22;45073;52.740;6.784;2022-11-14T08:31:20;7.20;99.90
59301;DHT22;45073;52.740;6.784;2022-11-14T08:33:46;7.20;99.90
59301;DHT22;45073;52.740;6.784;2022-11-14T08:36:14;7.20;99.90
59301;DHT22;45073;52.740;6.784;2022-11-14T08:38:40;7.20;99.90
59301;DHT22;45073;52.740;6.784;2022-11-14T08:41:05;7.30;99.90
59301;DHT22;45073;52.740;6.784;2022-11-14T08:43:31;7.30;99.90
59301;DHT22;45073;52.740;6.784;2022-11-14T08:46:01;7.40;99.90
59301;DHT22;45073;52.740;6.784;2022-11-14T08:48:28;7.40;99.90
59301;DHT22;45073;52.740;6.784;2022-11-14T08:50:54;7.50;99.90
59301;DHT22;45073;52.740;6.784;2022-11-14T08:53:20;7.50;99.90
59301;DHT22;45073;52.740;6.784;2022-11-14T08:55:46;7.60;99.90
59301;DHT22;45073;52.740;6.784;2022-11-14T08:58:12;7.70;99.90
59301;DHT22;45073;52.740;6.784;2022-11-14T09:00:38;7.70;99.90
59301;DHT22;45073;52.740;6.784;2022-11-14T09:03:10;7.80;99.90
59301;DHT22;45073;52.740;6.784;2022-11-14T09:05:40;7.80;99.90
59301;DHT22;45073;52.740;6.784;2022-11-14T09:08:06;7.80;99.90
59301;DHT22;45073;52.740;6.784;2022-11-14T09:10:32;7.90;99.90
59301;DHT22;45073;52.740;6.784;2022-11-14T09:12:59;7.90;99.90
59301;DHT22;45073;52.740;6.784;2022-11-14T09:15:26;8.00;99.90
59301;DHT22;45073;52.740;6.784;2022-11-14T09:17:56;8.00;99.90
59301;DHT22;45073;52.740;6.784;2022-11-14T09:20:23;8.10;99.90
59301;DHT22;45073;52.740;6.784;2022-11-14T09:22:49;8.20;99.90
59301;DHT22;45073;52.740;6.784;2022-11-14T09:25:18;8.20;99.90
59301;DHT22;45073;52.740;6.784;2022-11-14T09:27:44;8.30;99.90
59301;DHT22;45073;52.740;6.784;2022-11-14T09:30:10;8.30;99.90
59301;DHT22;45073;52.740;6.784;2022-11-14T09:32:36;8.30;99.90
59301;DHT22;45073;52.740;6.784;2022-11-14T09:35:01;8.40;99.90
59301;DHT22;45073;52.740;6.784;2022-11-14T09:37:27;8.40;99.90
59301;DHT22;45073;52.740;6.784;2022-11-14T09:39:53;8.40;99.90
59301;DHT22;45073;52.740;6.784;2022-11-14T09:45:20;8.50;99.90
59301;DHT22;45073;52.740;6.784;2022-11-14T09:48:01;8.50;99.90
59301;DHT22;45073;52.740;6.784;2022-11-14T09:50:32;8.60;99.90
59301;DHT22;45073;52.740;6.784;2022-11-14T09:53:03;8.60;99.90
59301;DHT22;45073;52.740;6.784;2022-11-14T09:55:32;8.70;99.90
59301;DHT22;45073;52.740;6.784;2022-11-14T09:58:00;8.70;99.90
59301;DHT22;45073;52.740;6.784;2022-11-14T10:00:28;8.70;99.90
59301;DHT22;45073;52.740;6.784;2022-11-14T10:03:15;8.70;99.90
59301;DHT22;45073;52.740;6.784;2022-11-14T10:06:06;8.80;99.90
59301;DHT22;45073;52.740;6.784;2022-11-14T10:11:13;9.00;99.90
59301;DHT22;45073;52.740;6.784;2022-11-14T10:13:52;9.10;99.90
59301;DHT22;45073;52.740;6.784;2022-11-14T10:16:50;9.20;99.90
59301;DHT22;45073;52.740;6.784;2022-11-14T10:19:48;9.20;99.90
59301;DHT22;45073;52.740;6.784;2022-11-14T10:25:08;9.40;99.90
59301;DHT22;45073;52.740;6.784;2022-11-14T10:27:44;9.40;99.90
59301;DHT22;45073;52.740;6.784;2022-11-14T10:30:15;9.60;99.90
59301;DHT22;45073;52.740;6.784;2022-11-14T10:35:27;9.80;99.90
59301;DHT22;45073;52.740;6.784;2022-11-14T10:38:06;9.90;99.90
59301;DHT22;45073;52.740;6.784;2022-11-14T10:40:38;9.90;99.90
59301;DHT22;45073;52.740;6.784;2022-11-14T10:46:07;10.20;99.90
59301;DHT22;45073;52.740;6.784;2022-11-14T10:48:38;10.40;99.90
59301;DHT22;45073;52.740;6.784;2022-11-14T10:51:17;10.50;99.90
59301;DHT22;45073;52.740;6.784;2022-11-14T10:53:54;10.60;99.90
59301;DHT22;45073;52.740;6.784;2022-11-14T10:56:20;10.70;99.90
59301;DHT22;45073;52.740;6.784;2022-11-14T10:58:46;10.80;99.90
59301;DHT22;45073;52.740;6.784;2022-11-14T11:01:40;10.90;99.90
59301;DHT22;45073;52.740;6.784;2022-11-14T11:04:28;11.10;99.90
59301;DHT22;45073;52.740;6.784;2022-11-14T11:09:35;11.40;99.90
59301;DHT22;45073;52.740;6.784;2022-11-14T11:12:41;11.60;99.90
59301;DHT22;45073;52.740;6.784;2022-11-14T11:15:25;11.70;99.90
59301;DHT22;45073;52.740;6.784;2022-11-14T11:18:04;11.80;99.90
59301;DHT22;45073;52.740;6.784;2022-11-14T11:20:38;11.90;99.90
59301;DHT22;45073;52.740;6.784;2022-11-14T11:23:12;12.00;99.90
59301;DHT22;45073;52.740;6.784;2022-11-14T11:25:40;12.20;99.90
59301;DHT22;45073;52.740;6.784;2022-11-14T11:28:13;12.30;99.90
59301;DHT22;45073;52.740;6.784;2022-11-14T11:30:39;12.50;99.90
59301;DHT22;45073;52.740;6.784;2022-11-14T11:35:48;12.90;99.90
59301;DHT22;45073;52.740;6.784;2022-11-14T11:38:16;13.10;99.90
59301;DHT22;45073;52.740;6.784;2022-11-14T11:40:50;13.30;99.90
59301;DHT22;45073;52.740;6.784;2022-11-14T11:46:10;13.60;99.90
59301;DHT22;45073;52.740;6.784;2022-11-14T11:48:38;13.70;98.50
59301;DHT22;45073;52.740;6.784;2022-11-14T11:51:05;13.90;94.50
59301;DHT22;45073;52.740;6.784;2022-11-14T11:53:38;14.00;94.30
59301;DHT22;45073;52.740;6.784;2022-11-14T11:56:10;14.30;98.40
59301;DHT22;45073;52.740;6.784;2022-11-14T11:58:43;14.40;96.00
59301;DHT22;45073;52.740;6.784;2022-11-14T12:01:10;14.70;95.70
59301;DHT22;45073;52.740;6.784;2022-11-14T12:03:37;15.00;95.60
59301;DHT22;45073;52.740;6.784;2022-11-14T12:06:20;15.60;92.00
59301;DHT22;45073;52.740;6.784;2022-11-14T12:11:26;17.10;82.00
59301;DHT22;45073;52.740;6.784;2022-11-14T12:19:50;17.90;71.70
59301;DHT22;45073;52.740;6.784;2022-11-14T12:22:43;18.20;71.20
59301;DHT22;45073;52.740;6.784;2022-11-14T12:25:37;18.80;70.80
59301;DHT22;45073;52.740;6.784;2022-11-14T12:30:50;19.60;67.80
59301;DHT22;45073;52.740;6.784;2022-11-14T12:33:28;20.00;65.00
59301;DHT22;45073;52.740;6.784;2022-11-14T12:36:01;20.60;65.10
59301;DHT22;45073;52.740;6.784;2022-11-14T12:38:33;21.70;63.70
59301;DHT22;45073;52.740;6.784;2022-11-14T12:41:05;22.70;60.70
59301;DHT22;45073;52.740;6.784;2022-11-14T12:43:41;23.50;58.00
59301;DHT22;45073;52.740;6.784;2022-11-14T12:46:08;24.40;54.60
59301;DHT22;45073;52.740;6.784;2022-11-14T12:48:36;25.20;53.80
59301;DHT22;45073;52.740;6.784;2022-11-14T12:51:05;25.80;52.10
59301;DHT22;45073;52.740;6.784;2022-11-14T12:53:50;26.50;51.40
59301;DHT22;45073;52.740;6.784;2022-11-14T13:07:32;28.30;46.20
59301;DHT22;45073;52.740;6.784;2022-11-14T13:10:34;28.70;45.00
59301;DHT22;45073;52.740;6.784;2022-11-14T13:13:11;28.90;43.40
59301;DHT22;45073;52.740;6.784;2022-11-14T13:15:57;28.90;43.60
59301;DHT22;45073;52.740;6.784;2022-11-14T13:27:30;28.50;41.30
59301;DHT22;45073;52.740;6.784;2022-11-14T13:29:56;28.60;41.70
59301;DHT22;45073;52.740;6.784;2022-11-14T13:32:52;28.70;40.90
59301;DHT22;45073;52.740;6.784;2022-11-14T13:46:53;28.60;39.50
59301;DHT22;45073;52.740;6.784;2022-11-14T13:52:13;28.30;39.80
59301;DHT22;45073;52.740;6.784;2022-11-14T13:54:47;28.30;40.10
59301;DHT22;45073;52.740;6.784;2022-11-14T13:57:25;28.10;39.30
59301;DHT22;45073;52.740;6.784;2022-11-14T14:00:14;28.10;39.30
59301;DHT22;45073;52.740;6.784;2022-11-14T14:05:28;27.10;39.60
59301;DHT22;45073;52.740;6.784;2022-11-14T14:08:18;26.50;40.20
59301;DHT22;45073;52.740;6.784;2022-11-14T14:13:58;25.60;40.80
59301;DHT22;45073;52.740;6.784;2022-11-14T14:16:44;25.10;42.30
59301;DHT22;45073;52.740;6.784;2022-11-14T14:19:37;24.60;42.20
59301;DHT22;45073;52.740;6.784;2022-11-14T14:22:18;24.10;42.90
59301;DHT22;45073;52.740;6.784;2022-11-14T14:25:07;23.40;42.90
59301;DHT22;45073;52.740;6.784;2022-11-14T14:30:24;21.50;46.00
59301;DHT22;45073;52.740;6.784;2022-11-14T14:33:12;20.60;47.80
59301;DHT22;45073;52.740;6.784;2022-11-14T14:35:39;20.10;48.50
59301;DHT22;45073;52.740;6.784;2022-11-14T14:38:22;19.40;50.00
59301;DHT22;45073;52.740;6.784;2022-11-14T14:40:48;18.90;51.40
59301;DHT22;45073;52.740;6.784;2022-11-14T14:43:24;18.60;52.40
59301;DHT22;45073;52.740;6.784;2022-11-14T14:45:52;18.20;53.10
59301;DHT22;45073;52.740;6.784;2022-11-14T14:48:22;17.80;54.00
59301;DHT22;45073;52.740;6.784;2022-11-14T14:50:54;17.50;55.00
59301;DHT22;45073;52.740;6.784;2022-11-14T14:53:25;17.20;55.90
59301;DHT22;45073;52.740;6.784;2022-11-14T14:55:59;16.90;56.80
59301;DHT22;45073;52.740;6.784;2022-11-14T14:58:27;16.70;57.60
59301;DHT22;45073;52.740;6.784;2022-11-14T15:01:01;16.50;57.90
59301;DHT22;45073;52.740;6.784;2022-11-14T15:03:38;16.20;58.50
59301;DHT22;45073;52.740;6.784;2022-11-14T15:06:28;16.10;59.30
59301;DHT22;45073;52.740;6.784;2022-11-14T15:09:07;15.90;60.00
59301;DHT22;45073;52.740;6.784;2022-11-14T15:11:34;15.70;60.40
59301;DHT22;45073;52.740;6.784;2022-11-14T15:14:01;15.50;61.80
59301;DHT22;45073;52.740;6.784;2022-11-14T15:16:28;15.40;61.70
59301;DHT22;45073;52.740;6.784;2022-11-14T15:18:55;15.30;62.10
59301;DHT22;45073;52.740;6.784;2022-11-14T15:24:11;15.00;62.90
59301;DHT22;45073;52.740;6.784;2022-11-14T15:26:38;14.90;63.30
59301;DHT22;45073;52.740;6.784;2022-11-14T15:29:17;14.60;63.20
59301;DHT22;45073;52.740;6.784;2022-11-14T15:31:58;14.50;64.30
59301;DHT22;45073;52.740;6.784;2022-11-14T15:34:37;14.50;64.90
59301;DHT22;45073;52.740;6.784;2022-11-14T15:39:41;14.30;66.00
59301;DHT22;45073;52.740;6.784;2022-11-14T15:42:26;14.10;65.40
59301;DHT22;45073;52.740;6.784;2022-11-14T15:44:52;14.00;66.50
59301;DHT22;45073;52.740;6.784;2022-11-14T15:47:28;13.90;66.80
59301;DHT22;45073;52.740;6.784;2022-11-14T15:49:58;13.90;67.50
59301;DHT22;45073;52.740;6.784;2022-11-14T15:52:31;13.70;67.20
59301;DHT22;45073;52.740;6.784;2022-11-14T15:54:57;13.50;67.90
59301;DHT22;45073;52.740;6.784;2022-11-14T15:57:22;13.50;69.30
59301;DHT22;45073;52.740;6.784;2022-11-14T15:59:48;13.40;69.00
59301;DHT22;45073;52.740;6.784;2022-11-14T16:02:18;13.40;70.30
59301;DHT22;45073;52.740;6.784;2022-11-14T16:04:45;13.20;70.20
59301;DHT22;45073;52.740;6.784;2022-11-14T16:07:12;13.10;70.80
59301;DHT22;45073;52.740;6.784;2022-11-14T16:09:38;13.10;73.90
59301;DHT22;45073;52.740;6.784;2022-11-14T16:12:04;13.10;74.90
59301;DHT22;45073;52.740;6.784;2022-11-14T16:14:30;13.00;74.20
59301;DHT22;45073;52.740;6.784;2022-11-14T16:16:55;13.00;76.50
59301;DHT22;45073;52.740;6.784;2022-11-14T16:19:21;12.90;75.30
59301;DHT22;45073;52.740;6.784;2022-11-14T16:21:47;12.70;76.10
59301;DHT22;45073;52.740;6.784;2022-11-14T16:24:21;12.60;76.60
59301;DHT22;45073;52.740;6.784;2022-11-14T16:26:47;12.50;77.50
59301;DHT22;45073;52.740;6.784;2022-11-14T16:29:13;12.50;80.90
59301;DHT22;45073;52.740;6.784;2022-11-14T16:31:39;12.50;79.40
59301;DHT22;45073;52.740;6.784;2022-11-14T16:34:05;12.50;83.70
59301;DHT22;45073;52.740;6.784;2022-11-14T16:36:31;12.40;81.40
59301;DHT22;45073;52.740;6.784;2022-11-14T16:38:59;12.30;81.50
59301;DHT22;45073;52.740;6.784;2022-11-14T16:41:25;12.20;83.00
59301;DHT22;45073;52.740;6.784;2022-11-14T16:43:55;12.30;87.00
59301;DHT22;45073;52.740;6.784;2022-11-14T16:46:22;12.20;84.90
59301;DHT22;45073;52.740;6.784;2022-11-14T16:48:48;12.20;85.10
59301;DHT22;45073;52.740;6.784;2022-11-14T16:51:14;12.10;84.70
59301;DHT22;45073;52.740;6.784;2022-11-14T16:53:39;12.00;86.90
59301;DHT22;45073;52.740;6.784;2022-11-14T16:56:05;12.10;91.60
59301;DHT22;45073;52.740;6.784;2022-11-14T16:58:31;12.10;91.70
59301;DHT22;45073;52.740;6.784;2022-11-14T17:00:56;12.00;89.80
59301;DHT22;45073;52.740;6.784;2022-11-14T17:03:22;11.80;90.10
59301;DHT22;45073;52.740;6.784;2022-11-14T17:05:50;11.70;90.50
59301;DHT22;45073;52.740;6.784;2022-11-14T17:08:16;11.60;90.70
59301;DHT22;45073;52.740;6.784;2022-11-14T17:10:43;11.60;91.50
59301;DHT22;45073;52.740;6.784;2022-11-14T17:13:10;11.50;91.50
59301;DHT22;45073;52.740;6.784;2022-11-14T17:15:35;11.40;91.80
59301;DHT22;45073;52.740;6.784;2022-11-14T17:18:02;11.40;91.90
59301;DHT22;45073;52.740;6.784;2022-11-14T17:20:28;11.30;92.40